Time;durP1;ratioP1;P1;durP2;ratioP2;P2;SDS_P1;SDS_P2;PMS_P1;PMS_P2;Temp;Humidity;BMP_temperature;BMP_pressure;BME280_temperature;BME280_humidity;BME280_pressure;Samples;Min_cycle;Max_cycle;Signal;HPM_P1;HPM_P2
2022/01/14 00:01:19;;;;;;;530.55;217.77;;;-3.50;99.90;;;;;;5054022;28;20029;-57
2022/01/14 00:03:45;;;;;;;533.70;222.90;;;-3.40;99.90;;;;;;5036151;28;20028;-57
2022/01/14 00:06:11;;;;;;;517.13;212.63;;;-3.30;99.90;;;;;;5054241;28;20072;-57
2022/01/14 00:08:37;;;;;;;507.20;204.65;;;-3.20;99.90;;;;;;5053978;28;20393;-57
2022/01/14 00:11:06;;;;;;;526.15;205.10;;;-3.20;99.90;;;;;;5054092;28;20476;-57
2022/01/14 00:13:48;;;;;;;506.10;204.90;;;-3.20;99.90;;;;;;5055205;28;20079;-57
2022/01/14 00:16:15;;;;;;;500.42;200.48;;;-3.20;99.90;;;;;;5057879;28;20040;-57
2022/01/14 00:18:41;;;;;;;505.33;199.90;;;-3.10;99.90;;;;;;5068605;28;20056;-57
2022/01/14 00:21:07;;;;;;;477.77;187.55;;;-3.00;99.90;;;;;;5077927;28;20344;-57
2022/01/14 00:23:37;;;;;;;474.55;194.30;;;-3.00;99.90;;;;;;5077647;28;20539;-57
2022/01/14 00:34:17;;;;;;;380.17;150.05;;;-2.90;99.90;;;;;;5057825;28;20060;-57
2022/01/14 00:36:44;;;;;;;369.60;146.73;;;-2.80;99.90;;;;;;5057430;28;20372;-57
2022/01/14 00:39:12;;;;;;;353.73;138.55;;;-2.80;99.90;;;;;;5057456;28;20029;-57
2022/01/14 00:41:38;;;;;;;361.88;141.90;;;-2.80;99.90;;;;;;5057368;28;20033;-57
2022/01/14 00:44:10;;;;;;;369.02;146.15;;;-2.80;99.90;;;;;;5039403;28;20055;-57
2022/01/14 00:46:41;;;;;;;370.90;146.60;;;-2.80;99.90;;;;;;5057230;28;20100;-57
2022/01/14 00:49:08;;;;;;;341.60;137.57;;;-2.80;99.90;;;;;;5057211;28;20029;-57
2022/01/14 00:51:35;;;;;;;340.17;134.73;;;-2.70;99.90;;;;;;5057065;28;20033;-57
2022/01/14 00:54:03;;;;;;;342.67;138.38;;;-2.80;99.90;;;;;;5057068;28;20029;-57
2022/01/14 00:56:44;;;;;;;359.77;138.77;;;-2.80;99.90;;;;;;5057157;28;20025;-57
2022/01/14 00:59:16;;;;;;;344.00;135.90;;;-2.80;99.90;;;;;;5057124;28;20029;-57
2022/01/14 01:01:54;;;;;;;355.08;137.68;;;-2.60;99.90;;;;;;5057173;28;20029;-57
2022/01/14 01:04:29;;;;;;;373.45;144.70;;;-2.50;99.90;;;;;;5056825;28;20510;-57
2022/01/14 01:06:56;;;;;;;364.65;145.82;;;-2.40;99.90;;;;;;5057089;28;20542;-57
2022/01/14 01:09:24;;;;;;;378.17;153.75;;;-2.50;99.90;;;;;;5056973;28;20032;-57
2022/01/14 01:11:54;;;;;;;413.98;164.38;;;-2.50;99.90;;;;;;5056989;28;20035;-57
2022/01/14 01:14:27;;;;;;;455.42;183.18;;;-2.50;99.90;;;;;;5056534;28;20329;-57
2022/01/14 01:16:54;;;;;;;465.05;189.25;;;-2.40;99.90;;;;;;5056726;28;20060;-57
2022/01/14 01:19:20;;;;;;;468.08;190.98;;;-2.40;99.90;;;;;;5072582;28;20052;-57
2022/01/14 01:21:46;;;;;;;440.10;183.38;;;-2.40;99.90;;;;;;5076841;28;20021;-57
2022/01/14 01:24:14;;;;;;;472.88;192.35;;;-2.40;99.90;;;;;;5076597;28;20429;-57
2022/01/14 01:26:42;;;;;;;420.15;172.93;;;-2.40;99.90;;;;;;5076573;28;20056;-57
2022/01/14 01:31:41;;;;;;;381.65;154.23;;;-2.40;99.90;;;;;;5073348;28;20201;-57
2022/01/14 01:34:15;;;;;;;379.30;154.63;;;-2.40;99.90;;;;;;5056412;28;20494;-57
2022/01/14 01:36:44;;;;;;;368.17;148.70;;;-2.40;99.90;;;;;;5056418;28;20021;-57
2022/01/14 01:39:13;;;;;;;380.08;153.13;;;-2.20;99.90;;;;;;5056539;28;20482;-57
2022/01/14 01:41:41;;;;;;;380.02;154.30;;;-2.20;99.90;;;;;;5056110;28;20029;-57
2022/01/14 01:44:07;;;;;;;389.88;155.15;;;-2.30;99.90;;;;;;5056506;28;20094;-57
2022/01/14 01:46:37;;;;;;;377.50;155.57;;;-2.30;99.90;;;;;;5056323;28;20051;-57
2022/01/14 01:49:04;;;;;;;396.37;163.47;;;-2.40;99.90;;;;;;5056092;28;20037;-57
2022/01/14 01:51:30;;;;;;;407.58;162.38;;;-2.30;99.90;;;;;;5056220;28;20037;-57
2022/01/14 01:53:56;;;;;;;387.67;159.32;;;-2.40;99.90;;;;;;5056205;28;20026;-57
2022/01/14 01:56:22;;;;;;;426.23;171.48;;;-2.50;99.90;;;;;;5055929;28;20039;-57
2022/01/14 01:58:48;;;;;;;396.33;162.85;;;-2.50;99.90;;;;;;5056044;28;20039;-57
2022/01/14 02:01:14;;;;;;;386.58;158.98;;;-2.40;99.90;;;;;;5038043;28;20461;-57
2022/01/14 02:03:41;;;;;;;359.40;147.88;;;-2.40;99.90;;;;;;5055900;28;20017;-57
2022/01/14 02:06:07;;;;;;;368.88;151.65;;;-2.30;99.90;;;;;;5037932;28;20032;-57
2022/01/14 02:08:33;;;;;;;362.55;145.55;;;-2.30;99.90;;;;;;5055833;28;20025;-57
2022/01/14 02:11:00;;;;;;;368.73;151.02;;;-2.50;99.90;;;;;;5055612;28;20549;-57
2022/01/14 02:13:26;;;;;;;552.15;216.07;;;-2.40;99.90;;;;;;5055713;28;20517;-57
2022/01/14 02:18:32;;;;;;;398.05;153.43;;;-2.50;99.90;;;;;;5064011;28;20428;-57
2022/01/14 02:23:52;;;;;;;523.83;198.32;;;-2.50;99.90;;;;;;5075405;28;20044;-57
2022/01/14 02:26:20;;;;;;;621.22;233.32;;;-2.40;99.90;;;;;;5075449;28;20029;-57
2022/01/14 02:28:52;;;;;;;455.30;168.45;;;-2.30;99.90;;;;;;5075490;28;20025;-57
2022/01/14 02:31:18;;;;;;;358.08;149.40;;;-2.30;99.90;;;;;;5074630;28;20035;-57
2022/01/14 02:33:44;;;;;;;350.73;141.77;;;-2.40;99.90;;;;;;5055356;28;20490;-57
2022/01/14 02:36:11;;;;;;;349.20;144.13;;;-2.50;99.90;;;;;;5054937;28;20095;-57
2022/01/14 02:38:37;;;;;;;366.00;149.98;;;-2.60;99.90;;;;;;5055043;28;20478;-57
2022/01/14 02:41:03;;;;;;;392.70;154.38;;;-2.70;99.90;;;;;;5055187;28;20496;-57
2022/01/14 02:43:29;;;;;;;404.23;152.23;;;-2.70;99.90;;;;;;5055111;28;20028;-57
2022/01/14 02:45:57;;;;;;;402.08;152.98;;;-2.70;99.90;;;;;;5055088;28;20021;-57
2022/01/14 02:48:28;;;;;;;363.10;146.65;;;-2.60;99.90;;;;;;5055150;28;20044;-57
2022/01/14 02:53:29;;;;;;;344.65;141.32;;;-2.80;99.90;;;;;;5055242;28;19912;-57
2022/01/14 02:56:01;;;;;;;345.25;140.63;;;-3.00;99.90;;;;;;5054921;28;20070;-57
2022/01/14 02:58:30;;;;;;;329.75;139.32;;;-3.00;99.90;;;;;;5054854;28;20379;-57
2022/01/14 03:01:00;;;;;;;335.00;134.55;;;-3.10;99.90;;;;;;5054720;28;20024;-57
2022/01/14 03:03:29;;;;;;;358.67;142.75;;;-3.00;99.90;;;;;;5054859;28;20028;-57
2022/01/14 03:05:55;;;;;;;333.23;136.25;;;-3.00;99.90;;;;;;5054894;28;20492;-57
2022/01/14 03:08:22;;;;;;;337.77;136.20;;;-3.10;99.90;;;;;;5054587;28;20032;-57
2022/01/14 03:10:58;;;;;;;338.60;139.98;;;-3.20;99.90;;;;;;5054723;28;20040;-56
2022/01/14 03:13:24;;;;;;;351.88;143.90;;;-3.20;99.90;;;;;;5054397;28;20529;-57
2022/01/14 03:15:50;;;;;;;324.63;137.52;;;-3.30;99.90;;;;;;5054587;28;20079;-57
2022/01/14 03:18:21;;;;;;;326.77;137.35;;;-3.40;99.90;;;;;;5061733;28;20474;-57
2022/01/14 03:20:57;;;;;;;321.83;133.75;;;-3.40;99.90;;;;;;5074205;28;20060;-57
2022/01/14 03:23:25;;;;;;;309.83;131.32;;;-3.40;99.90;;;;;;5074702;28;20566;-57
2022/01/14 03:25:52;;;;;;;342.63;137.35;;;-3.50;99.90;;;;;;5074412;28;20017;-57
2022/01/14 03:28:23;;;;;;;341.10;136.60;;;-3.50;99.90;;;;;;5074395;28;20037;-57
2022/01/14 03:30:52;;;;;;;316.23;134.07;;;-3.60;99.90;;;;;;5074348;28;20056;-57
2022/01/14 03:33:20;;;;;;;323.20;134.63;;;-3.60;99.90;;;;;;5057027;28;20032;-57
2022/01/14 03:35:46;;;;;;;318.10;129.25;;;-3.60;99.90;;;;;;5054322;28;20029;-57
2022/01/14 03:38:12;;;;;;;325.50;135.05;;;-3.70;99.90;;;;;;5054191;28;20382;-57
2022/01/14 03:40:39;;;;;;;387.05;147.95;;;-3.70;99.90;;;;;;5054387;28;20029;-57
2022/01/14 03:43:05;;;;;;;404.33;154.55;;;-3.70;99.90;;;;;;5054172;28;20029;-57
2022/01/14 03:45:31;;;;;;;451.15;171.93;;;-3.60;99.90;;;;;;5054215;28;20025;-57
2022/01/14 03:47:57;;;;;;;433.58;163.48;;;-3.70;99.90;;;;;;5054582;28;20021;-57
2022/01/14 03:50:23;;;;;;;435.52;165.88;;;-3.70;99.90;;;;;;5058477;28;20029;-57
2022/01/14 03:52:49;;;;;;;422.95;166.15;;;-3.80;99.90;;;;;;5058359;28;20230;-57
2022/01/14 03:55:15;;;;;;;399.30;155.23;;;-3.90;99.90;;;;;;5058291;28;20029;-57
2022/01/14 03:57:41;;;;;;;387.85;153.43;;;-3.90;99.90;;;;;;5058281;28;20112;-57
2022/01/14 04:00:07;;;;;;;510.92;182.77;;;-4.00;99.90;;;;;;5058253;28;20025;-57
2022/01/14 04:02:43;;;;;;;374.75;145.43;;;-4.00;99.90;;;;;;5058258;28;20029;-57
2022/01/14 04:05:09;;;;;;;349.27;136.63;;;-4.00;99.90;;;;;;5057936;28;20033;-57
2022/01/14 04:07:35;;;;;;;384.75;149.25;;;-4.00;99.90;;;;;;5058112;28;20029;-57
2022/01/14 04:10:02;;;;;;;433.13;170.50;;;-4.00;99.90;;;;;;5058135;28;20052;-57
2022/01/14 04:12:43;;;;;;;371.00;149.27;;;-4.10;99.90;;;;;;5057845;28;20421;-57
2022/01/14 04:17:54;;;;;;;378.33;143.48;;;-4.10;99.90;;;;;;5062033;28;20349;-57
2022/01/14 04:20:20;;;;;;;424.30;162.15;;;-4.20;99.90;;;;;;5077953;28;20040;-57
2022/01/14 04:22:48;;;;;;;421.95;162.68;;;-4.10;99.90;;;;;;5077899;28;20067;-57
2022/01/14 04:25:14;;;;;;;416.02;159.98;;;-4.10;99.90;;;;;;5077697;28;20497;-57
2022/01/14 04:27:40;;;;;;;424.67;161.25;;;-4.10;99.90;;;;;;5077928;28;20031;-57
2022/01/14 04:30:07;;;;;;;412.77;160.00;;;-4.30;99.90;;;;;;5077717;28;20024;-57
2022/01/14 04:32:33;;;;;;;423.08;161.80;;;-4.40;99.90;;;;;;5066794;28;20036;-57
2022/01/14 04:34:59;;;;;;;400.95;159.77;;;-4.30;99.90;;;;;;5057665;28;20083;-57
2022/01/14 04:37:25;;;;;;;403.70;155.27;;;-4.30;99.90;;;;;;5057649;28;20029;-57
2022/01/14 04:39:51;;;;;;;402.65;155.55;;;-4.40;99.90;;;;;;5057386;28;20032;-57
2022/01/14 04:42:17;;;;;;;384.50;150.13;;;-4.40;99.90;;;;;;5057428;28;20055;-57
2022/01/14 04:44:43;;;;;;;413.10;160.15;;;-4.40;99.90;;;;;;5057703;28;20028;-57
2022/01/14 04:47:30;;;;;;;408.20;159.38;;;-4.40;99.90;;;;;;5057293;28;20083;-57
2022/01/14 04:49:56;;;;;;;396.23;155.07;;;-4.40;99.90;;;;;;5057404;28;20020;-57
2022/01/14 04:52:23;;;;;;;409.38;157.95;;;-4.50;99.90;;;;;;5057611;28;20090;-57
2022/01/14 04:54:49;;;;;;;417.95;163.00;;;-4.60;99.90;;;;;;5039378;28;20029;-57
2022/01/14 04:57:21;;;;;;;411.23;157.88;;;-4.60;99.90;;;;;;5057203;28;20389;-57
2022/01/14 04:59:49;;;;;;;416.95;161.30;;;-4.50;99.90;;;;;;5056678;28;20466;-57
2022/01/14 05:02:15;;;;;;;405.30;158.52;;;-4.50;99.90;;;;;;5057001;28;20485;-57
2022/01/14 05:04:43;;;;;;;399.85;155.40;;;-4.50;99.90;;;;;;5057084;28;20379;-57
2022/01/14 05:07:14;;;;;;;395.00;156.00;;;-4.50;99.90;;;;;;5056854;28;20106;-57
2022/01/14 05:09:45;;;;;;;400.92;159.02;;;-4.60;99.90;;;;;;5057088;28;20463;-57
2022/01/14 05:12:11;;;;;;;386.33;152.10;;;-4.70;99.90;;;;;;5056870;28;20467;-57
2022/01/14 05:14:38;;;;;;;497.38;209.60;;;-4.70;99.90;;;;;;5056770;28;20318;-57
2022/01/14 05:17:04;;;;;;;426.70;171.85;;;-4.70;99.90;;;;;;5056724;28;20033;-57
2022/01/14 05:19:30;;;;;;;394.10;152.50;;;-4.60;99.90;;;;;;5073850;28;20043;-57
2022/01/14 05:21:56;;;;;;;420.38;168.20;;;-4.60;99.90;;;;;;5076717;28;20020;-57
2022/01/14 05:24:23;;;;;;;407.45;161.05;;;-4.70;99.90;;;;;;5076696;28;20462;-57
2022/01/14 05:26:50;;;;;;;407.05;157.15;;;-4.70;99.90;;;;;;5076653;28;20025;-57
2022/01/14 05:29:17;;;;;;;389.60;152.48;;;-4.80;99.90;;;;;;5076669;28;20040;-57
2022/01/14 05:31:51;;;;;;;389.88;156.15;;;-4.70;99.90;;;;;;5072796;28;20021;-57
2022/01/14 05:34:18;;;;;;;399.27;152.68;;;-4.70;99.90;;;;;;5056526;28;20117;-57
2022/01/14 05:36:44;;;;;;;391.42;159.65;;;-4.70;99.90;;;;;;5056188;28;20119;-57
2022/01/14 05:39:11;;;;;;;380.75;151.35;;;-4.70;99.90;;;;;;5056450;28;20056;-57
2022/01/14 05:41:37;;;;;;;370.35;150.43;;;-4.60;99.90;;;;;;5056306;28;20104;-57
2022/01/14 05:44:04;;;;;;;374.80;154.88;;;-4.50;99.90;;;;;;5056177;28;20040;-57
2022/01/14 05:46:30;;;;;;;369.55;146.15;;;-4.60;99.90;;;;;;5056097;28;20378;-57
2022/01/14 05:48:56;;;;;;;389.77;155.55;;;-4.60;99.90;;;;;;5056172;28;20059;-57
2022/01/14 05:51:22;;;;;;;376.17;153.40;;;-4.60;99.90;;;;;;5055956;28;20033;-57
2022/01/14 05:53:48;;;;;;;383.13;151.60;;;-4.70;99.90;;;;;;5056086;28;20048;-57
2022/01/14 05:56:14;;;;;;;402.27;157.70;;;-4.70;99.90;;;;;;5056052;28;20028;-57
2022/01/14 05:58:40;;;;;;;373.15;154.73;;;-4.70;99.90;;;;;;5056015;28;20025;-57
2022/01/14 06:01:06;;;;;;;382.50;151.27;;;-4.60;99.90;;;;;;5055858;28;20071;-57
2022/01/14 06:03:32;;;;;;;369.52;147.85;;;-4.60;99.90;;;;;;5055952;28;20017;-57
2022/01/14 06:05:58;;;;;;;357.23;137.02;;;-4.60;99.90;;;;;;5055803;28;20028;-57
2022/01/14 06:08:24;;;;;;;377.75;148.55;;;-4.60;99.90;;;;;;5055796;28;20029;-57
2022/01/14 06:10:50;;;;;;;422.27;163.10;;;-4.60;99.90;;;;;;5054916;28;20033;-57
2022/01/14 06:13:16;;;;;;;477.15;182.38;;;-4.50;99.90;;;;;;5055592;28;20036;-57
2022/01/14 06:15:42;;;;;;;459.58;175.65;;;-4.50;99.90;;;;;;5055634;28;20021;-57
2022/01/14 06:18:08;;;;;;;476.30;182.95;;;-4.60;99.90;;;;;;5061645;28;20032;-57
2022/01/14 06:20:34;;;;;;;485.40;187.80;;;-4.50;99.90;;;;;;5075151;28;20052;-57
2022/01/14 06:23:00;;;;;;;482.38;188.77;;;-4.60;99.90;;;;;;5058044;28;20440;-57
2022/01/14 06:25:26;;;;;;;477.20;180.88;;;-4.50;99.90;;;;;;5051657;28;20152;-57
2022/01/14 06:27:52;;;;;;;425.90;164.82;;;-4.60;99.90;;;;;;5049400;28;20415;-57
2022/01/14 06:30:18;;;;;;;517.70;171.85;;;-4.70;99.90;;;;;;5045178;28;20055;-57
2022/01/14 06:32:44;;;;;;;541.65;178.88;;;-4.60;99.90;;;;;;5054551;28;20025;-57
2022/01/14 06:35:11;;;;;;;681.58;243.88;;;-4.60;99.90;;;;;;5055924;28;20336;-57
2022/01/14 06:37:38;;;;;;;479.15;173.82;;;-4.60;99.90;;;;;;5039392;28;20822;-57
2022/01/14 06:40:05;;;;;;;497.35;177.07;;;-4.50;99.90;;;;;;5041400;28;20056;-57
2022/01/14 06:42:31;;;;;;;534.03;196.02;;;-4.50;99.90;;;;;;5039558;28;20025;-57
2022/01/14 06:44:57;;;;;;;517.75;193.30;;;-4.50;99.90;;;;;;5034735;28;20049;-57
2022/01/14 06:47:24;;;;;;;471.80;182.57;;;-4.40;99.90;;;;;;5050738;28;20059;-57
2022/01/14 06:49:49;;;;;;;401.42;156.80;;;-4.30;99.90;;;;;;5045169;28;20059;-57
2022/01/14 06:52:16;;;;;;;382.65;151.85;;;-4.30;99.90;;;;;;5053076;28;20063;-58
2022/01/14 06:54:42;;;;;;;344.25;142.55;;;-4.20;99.90;;;;;;5042812;28;20029;-57
2022/01/14 06:57:08;;;;;;;378.45;150.50;;;-4.10;99.90;;;;;;5069255;28;20037;-57
2022/01/14 06:59:35;;;;;;;432.20;165.30;;;-3.90;99.90;;;;;;5054666;28;20463;-57
2022/01/14 07:02:04;;;;;;;460.73;174.63;;;-3.90;99.90;;;;;;5037546;28;20250;-58
2022/01/14 07:04:33;;;;;;;399.35;152.00;;;-3.80;99.90;;;;;;5053685;28;20025;-57
2022/01/14 07:10:36;;;;;;;376.38;158.70;;;-3.40;99.90;;;;;;5049141;28;20370;-57
2022/01/14 07:13:04;;;;;;;388.88;161.85;;;-2.60;99.90;;;;;;5050529;28;20024;-57
2022/01/14 07:15:30;;;;;;;407.98;169.93;;;-1.90;99.90;;;;;;5054886;28;20458;-57
2022/01/14 07:17:56;;;;;;;413.42;176.55;;;-1.10;99.90;;;;;;5059338;28;20052;-58
2022/01/14 07:20:22;;;;;;;427.45;186.00;;;-0.30;99.90;;;;;;5074820;28;20045;-58
2022/01/14 07:22:48;;;;;;;431.25;191.02;;;0.40;99.90;;;;;;5050507;28;20110;-58
2022/01/14 07:25:14;;;;;;;454.67;208.13;;;1.20;99.90;;;;;;5054046;28;20068;-58
2022/01/14 07:27:41;;;;;;;488.98;218.98;;;0.80;99.90;;;;;;5047213;28;20176;-58
2022/01/14 07:30:08;;;;;;;518.50;238.45;;;0.60;99.90;;;;;;5052443;28;20029;-58
2022/01/14 07:32:35;;;;;;;517.75;237.18;;;0.30;99.90;;;;;;5032426;28;20132;-58
2022/01/14 07:35:10;;;;;;;506.63;234.80;;;0.10;99.90;;;;;;5026827;28;20045;-58
2022/01/14 07:37:36;;;;;;;518.30;237.98;;;0.70;99.90;;;;;;5046418;28;20397;-58
2022/01/14 07:40:03;;;;;;;510.73;235.32;;;1.50;99.90;;;;;;5051283;28;20025;-58
2022/01/14 07:42:30;;;;;;;527.97;246.70;;;1.90;99.90;;;;;;5052999;28;20036;-58
2022/01/14 07:44:56;;;;;;;530.53;246.20;;;1.50;99.90;;;;;;5054078;28;20108;-58
2022/01/14 07:47:22;;;;;;;525.67;242.13;;;0.90;99.90;;;;;;5066035;28;20086;-58
2022/01/14 07:49:58;;;;;;;525.20;244.98;;;1.50;99.90;;;;;;5057899;28;20029;-58
2022/01/14 07:52:25;;;;;;;513.08;242.30;;;1.80;99.90;;;;;;5051938;28;20033;-58
2022/01/14 07:54:58;;;;;;;500.35;226.30;;;2.90;99.90;;;;;;5048473;28;20086;-58
2022/01/14 07:57:24;;;;;;;483.55;215.75;;;3.50;99.70;;;;;;5048072;28;20025;-58
2022/01/14 07:59:50;;;;;;;476.58;216.20;;;3.40;98.90;;;;;;5051056;28;20025;-58
2022/01/14 08:02:18;;;;;;;487.00;223.73;;;3.80;97.30;;;;;;5052396;28;20772;-58
2022/01/14 08:04:44;;;;;;;487.80;225.60;;;3.80;99.80;;;;;;5034489;28;20029;-58
2022/01/14 08:07:11;;;;;;;480.27;229.55;;;4.90;96.50;;;;;;5045768;28;20032;-58
2022/01/14 08:09:42;;;;;;;499.90;235.13;;;5.70;95.50;;;;;;5037344;28;20038;-58
2022/01/14 08:12:09;;;;;;;509.95;240.88;;;5.80;93.60;;;;;;5041359;28;20632;-58
2022/01/14 08:14:36;;;;;;;497.67;239.50;;;6.00;91.50;;;;;;5046908;28;20738;-58
2022/01/14 08:17:03;;;;;;;520.58;252.55;;;6.20;93.00;;;;;;5042558;28;20025;-59
2022/01/14 08:19:33;;;;;;;512.72;244.50;;;6.10;91.60;;;;;;5048127;28;20037;-59
2022/01/14 08:22:18;;;;;;;503.35;242.38;;;5.60;94.50;;;;;;5059322;28;20047;-58
2022/01/14 08:24:44;;;;;;;526.83;244.93;;;6.60;87.20;;;;;;5049409;28;20085;-59
2022/01/14 08:27:10;;;;;;;498.30;233.38;;;6.40;91.60;;;;;;5052804;28;20025;-59
2022/01/14 08:29:36;;;;;;;502.20;236.52;;;6.30;91.10;;;;;;5048206;28;20131;-59
2022/01/14 08:32:02;;;;;;;490.02;233.02;;;7.40;85.00;;;;;;5049147;28;20036;-59
2022/01/14 08:34:28;;;;;;;475.73;221.07;;;7.20;84.80;;;;;;5054714;28;20071;-59
2022/01/14 08:36:54;;;;;;;415.27;190.32;;;7.70;78.10;;;;;;5054150;28;20119;-59
2022/01/14 08:39:20;;;;;;;417.25;187.52;;;7.90;76.40;;;;;;5055754;28;20029;-59
2022/01/14 08:41:47;;;;;;;366.95;171.13;;;8.10;75.90;;;;;;5052745;28;20028;-59
2022/01/14 08:44:14;;;;;;;428.88;195.13;;;7.80;80.20;;;;;;5046639;28;20071;-59
2022/01/14 08:46:41;;;;;;;439.70;199.98;;;8.20;77.60;;;;;;5050190;28;20026;-59
2022/01/14 08:49:13;;;;;;;433.45;199.20;;;8.60;72.60;;;;;;5038571;28;20112;-59
2022/01/14 08:51:44;;;;;;;411.48;195.68;;;8.00;81.70;;;;;;5039244;28;20093;-60
2022/01/14 08:54:13;;;;;;;385.00;185.27;;;8.20;77.30;;;;;;5024017;28;20021;-58
2022/01/14 08:56:42;;;;;;;375.20;168.57;;;8.80;71.60;;;;;;5048751;28;20032;-58
2022/01/14 08:59:08;;;;;;;312.33;148.00;;;9.00;67.60;;;;;;5050651;28;20117;-58
2022/01/14 09:01:35;;;;;;;333.45;140.98;;;8.80;67.80;;;;;;5049702;28;20030;-58
2022/01/14 09:04:02;;;;;;;285.15;138.48;;;9.40;66.40;;;;;;5031895;28;20387;-58
2022/01/14 09:06:28;;;;;;;312.40;147.65;;;9.70;61.20;;;;;;5054520;28;20109;-58
2022/01/14 09:08:54;;;;;;;308.20;142.05;;;9.20;62.40;;;;;;5054090;28;20024;-58
2022/01/14 09:11:20;;;;;;;267.52;132.07;;;9.20;70.40;;;;;;5058700;28;20091;-58
2022/01/14 09:13:47;;;;;;;263.65;127.55;;;9.80;65.70;;;;;;5049796;28;20073;-58
2022/01/14 09:16:13;;;;;;;277.92;137.00;;;10.00;66.40;;;;;;5047472;28;20032;-58
2022/01/14 09:18:39;;;;;;;269.98;134.68;;;10.40;57.40;;;;;;5048070;28;20039;-58
2022/01/14 09:21:05;;;;;;;280.58;141.82;;;10.10;61.20;;;;;;5052086;28;20463;-57
2022/01/14 09:23:33;;;;;;;298.80;146.45;;;9.20;65.70;;;;;;5058127;28;20078;-58
2022/01/14 09:26:00;;;;;;;286.42;139.68;;;9.80;66.50;;;;;;5048447;28;20470;-58
2022/01/14 09:28:28;;;;;;;276.35;137.07;;;10.40;59.30;;;;;;5054781;28;20056;-58
2022/01/14 09:30:54;;;;;;;274.48;130.27;;;10.10;61.00;;;;;;5049403;28;20379;-58
2022/01/14 09:33:21;;;;;;;254.45;126.30;;;10.40;59.40;;;;;;5060426;28;20059;-58
2022/01/14 09:35:47;;;;;;;240.77;116.75;;;10.60;63.60;;;;;;5042256;28;20022;-58
2022/01/14 09:38:13;;;;;;;286.52;133.77;;;11.10;54.40;;;;;;5045181;28;20067;-58
2022/01/14 09:40:43;;;;;;;267.63;132.15;;;11.10;57.70;;;;;;5049055;28;20082;-57
2022/01/14 09:43:12;;;;;;;275.50;134.93;;;10.80;53.40;;;;;;5063858;28;20116;-58
2022/01/14 09:45:39;;;;;;;280.52;133.82;;;11.40;56.70;;;;;;5053768;28;20497;-58
2022/01/14 09:48:06;;;;;;;245.50;122.45;;;11.60;54.10;;;;;;5054376;28;20546;-62
2022/01/14 09:50:32;;;;;;;245.45;120.80;;;11.40;54.80;;;;;;5051738;28;20021;-58
2022/01/14 09:52:58;;;;;;;243.70;121.30;;;11.30;55.20;;;;;;5027240;28;20025;-58
2022/01/14 09:55:24;;;;;;;219.50;112.47;;;11.40;53.00;;;;;;5047200;28;20094;-59
2022/01/14 09:57:55;;;;;;;246.13;117.57;;;11.60;54.30;;;;;;5048183;28;20038;-59
2022/01/14 10:00:21;;;;;;;243.63;121.60;;;11.90;54.60;;;;;;5041621;28;20029;-59
2022/01/14 10:02:49;;;;;;;243.65;120.47;;;11.70;53.40;;;;;;5056244;28;20487;-59
2022/01/14 10:05:37;;;;;;;218.68;115.88;;;11.60;55.70;;;;;;5038330;28;20017;-59
2022/01/14 10:08:20;;;;;;;232.65;114.70;;;11.20;55.70;;;;;;5060775;28;20025;-59
2022/01/14 10:10:50;;;;;;;239.50;116.88;;;11.70;56.10;;;;;;5035496;28;20049;-59
2022/01/14 10:13:19;;;;;;;247.30;123.50;;;12.70;51.90;;;;;;5043624;28;20029;-59
2022/01/14 10:15:52;;;;;;;241.77;118.93;;;11.90;54.70;;;;;;5055522;28;20063;-59
2022/01/14 10:18:20;;;;;;;238.48;121.78;;;12.40;53.30;;;;;;5062550;28;20032;-59
2022/01/14 10:20:47;;;;;;;219.80;114.97;;;12.20;54.20;;;;;;5075220;28;20387;-59
2022/01/14 10:23:15;;;;;;;213.82;113.22;;;12.80;51.40;;;;;;5058399;28;20029;-59
2022/01/14 10:25:42;;;;;;;219.35;112.40;;;12.70;51.90;;;;;;5055033;28;20032;-59
2022/01/14 10:28:20;;;;;;;232.50;113.65;;;13.90;50.10;;;;;;5054542;28;20390;-60
2022/01/14 10:30:48;;;;;;;203.15;106.10;;;13.60;48.50;;;;;;5039019;28;20024;-59
2022/01/14 10:33:20;;;;;;;211.93;107.57;;;13.20;51.00;;;;;;5055387;28;20029;-59
2022/01/14 10:35:47;;;;;;;162.18;87.70;;;13.20;49.90;;;;;;5051626;28;20124;-59
2022/01/14 10:38:19;;;;;;;178.63;93.55;;;13.70;47.90;;;;;;5054049;28;20025;-59
2022/01/14 10:40:57;;;;;;;175.25;89.28;;;13.30;50.50;;;;;;5050922;28;20110;-59
2022/01/14 10:43:35;;;;;;;180.85;96.47;;;14.50;49.30;;;;;;5054119;28;20082;-60
2022/01/14 10:46:07;;;;;;;184.30;97.10;;;14.30;45.40;;;;;;5054949;28;20027;-59
2022/01/14 10:48:35;;;;;;;176.40;90.75;;;14.10;48.20;;;;;;5049513;28;20098;-59
2022/01/14 10:51:10;;;;;;;179.18;90.45;;;14.10;46.90;;;;;;5052734;28;20381;-60
2022/01/14 10:53:38;;;;;;;187.88;96.40;;;14.20;50.00;;;;;;5050902;28;20029;-59
2022/01/14 10:56:05;;;;;;;170.57;91.63;;;14.40;47.70;;;;;;5051947;28;20518;-59
2022/01/14 10:58:37;;;;;;;167.88;90.50;;;13.80;46.90;;;;;;5051299;28;20025;-59
2022/01/14 11:01:06;;;;;;;177.93;96.80;;;13.20;50.60;;;;;;5060645;28;20028;-59
2022/01/14 11:03:56;;;;;;;190.98;100.90;;;13.10;53.00;;;;;;5053335;28;20474;-60
2022/01/14 11:06:50;;;;;;;182.67;99.10;;;13.30;54.20;;;;;;5039301;28;21392;-59
2022/01/14 11:09:22;;;;;;;190.15;98.32;;;13.80;50.50;;;;;;5052411;28;20044;-60
2022/01/14 11:11:50;;;;;;;198.07;97.10;;;14.00;50.40;;;;;;5051565;28;20774;-60
2022/01/14 11:14:16;;;;;;;184.77;94.90;;;13.70;50.60;;;;;;5052728;28;20025;-59
2022/01/14 11:16:42;;;;;;;169.23;88.55;;;13.70;51.00;;;;;;5054161;28;20102;-60
2022/01/14 11:19:10;;;;;;;201.60;93.47;;;14.30;49.80;;;;;;5048786;28;20144;-60
2022/01/14 11:24:26;;;;;;;172.43;88.70;;;14.20;47.60;;;;;;5051422;28;20060;-60
2022/01/14 11:27:04;;;;;;;163.25;86.32;;;14.10;50.20;;;;;;5050980;28;20030;-60
2022/01/14 11:29:42;;;;;;;188.43;87.85;;;14.60;47.70;;;;;;5056679;28;20489;-60
2022/01/14 11:32:11;;;;;;;150.63;81.88;;;14.30;49.40;;;;;;5041646;28;20455;-60
2022/01/14 11:34:46;;;;;;;154.80;81.80;;;13.80;49.50;;;;;;5053217;28;20025;-60
2022/01/14 11:37:32;;;;;;;152.85;81.55;;;14.60;47.70;;;;;;5054025;28;20059;-60
2022/01/14 11:40:03;;;;;;;154.20;80.15;;;15.00;47.20;;;;;;5035282;28;20472;-60
2022/01/14 11:42:50;;;;;;;151.43;81.85;;;15.50;47.20;;;;;;5051648;28;20028;-60
2022/01/14 11:45:18;;;;;;;146.35;80.22;;;15.70;45.30;;;;;;5053680;28;20025;-60
2022/01/14 11:47:46;;;;;;;146.32;82.38;;;15.50;46.80;;;;;;5043726;28;20029;-60
2022/01/14 11:50:18;;;;;;;149.63;82.95;;;14.60;46.60;;;;;;5050798;28;20028;-60
2022/01/14 11:52:45;;;;;;;153.95;82.28;;;15.00;45.90;;;;;;5059569;28;20029;-60
2022/01/14 11:55:23;;;;;;;145.50;79.28;;;14.70;48.00;;;;;;5051462;28;20045;-58
2022/01/14 11:57:57;;;;;;;156.02;83.75;;;14.90;48.00;;;;;;5053162;28;20033;-58
2022/01/14 12:00:37;;;;;;;158.50;78.57;;;15.00;47.70;;;;;;5050371;28;20026;-58
2022/01/14 12:03:15;;;;;;;142.50;75.50;;;15.50;46.40;;;;;;5053589;28;20028;-58
2022/01/14 12:05:55;;;;;;;176.13;77.93;;;15.10;47.20;;;;;;5054483;28;20029;-58
2022/01/14 12:08:31;;;;;;;140.00;73.88;;;14.60;49.20;;;;;;5054529;28;20076;-58
2022/01/14 12:10:57;;;;;;;121.28;68.88;;;15.60;47.20;;;;;;5057142;28;20037;-58
2022/01/14 12:13:37;;;;;;;136.10;69.18;;;16.00;45.70;;;;;;5057860;28;20391;-59
2022/01/14 12:16:07;;;;;;;122.28;63.70;;;16.20;46.20;;;;;;5057551;28;20033;-58
2022/01/14 12:18:51;;;;;;;121.03;62.83;;;15.50;46.80;;;;;;5066475;28;20024;-58
2022/01/14 12:21:18;;;;;;;111.43;60.95;;;15.30;49.00;;;;;;5039654;28;20064;-58
2022/01/14 12:23:44;;;;;;;118.32;59.60;;;16.40;45.90;;;;;;5037465;28;20021;-58
2022/01/14 12:26:20;;;;;;;114.32;62.33;;;16.70;45.70;;;;;;5026440;28;20021;-58
2022/01/14 12:29:09;;;;;;;114.43;56.83;;;16.40;44.50;;;;;;5035313;28;20017;-58
2022/01/14 12:32:06;;;;;;;111.10;56.90;;;16.10;45.10;;;;;;5031449;28;20036;-59
2022/01/14 12:34:37;;;;;;;130.20;60.50;;;16.80;44.40;;;;;;5026470;28;20041;-59
2022/01/14 12:37:05;;;;;;;127.32;57.90;;;16.80;44.70;;;;;;5034705;28;20033;-59
2022/01/14 12:39:32;;;;;;;108.18;55.72;;;15.90;46.60;;;;;;5032268;28;20029;-59
2022/01/14 12:42:00;;;;;;;100.82;54.00;;;16.20;46.60;;;;;;5021739;28;20025;-60
2022/01/14 12:44:27;;;;;;;111.82;54.85;;;16.60;46.40;;;;;;5031435;28;20103;-60
2022/01/14 12:47:02;;;;;;;102.25;53.60;;;16.70;46.10;;;;;;5037557;28;20033;-60